Port Barre, Louisiana
Current Conditions -  °F | °C
As of 7:15 PM on Friday 24 Oct 2014 (Local Time) from KOPL Reporting Station
Overcast Overcast  
Wind Chill: 60°   Ceiling: 200
Heat Index: 60°   Visibility: 10mi
Dew Point: 52°   Wind: 0mph
Humidity: 75%   Direction: NA
Pressure: 30.1"   Gusts: NA
Location:  30.56°N, 91.95°W
Report Text: KOPL 250015Z AUTO 00000KT 10SM OVC002 16/11 A3010 RMK AO2 T01560111
Loading
Personal Weather Stations






























Interactive Weather Map
Tropical Storm Tracking
New forecast layout! Learn more

10-Day Weather Forecast

Advertisements
Track Severe Weather on mobile